Time;durP1;ratioP1;P1;durP2;ratioP2;P2;SDS_P1;SDS_P2;PMS_P1;PMS_P2;Temp;Humidity;BMP_temperature;BMP_pressure;BME280_temperature;BME280_humidity;BME280_pressure;Samples;Min_cycle;Max_cycle;Signal;HPM_P1;HPM_P2
2022/09/23 00:01:13;;;;;;;;;;;230.90;2252.80;;;;;;5030616;28;19909;-63
2022/09/23 00:03:44;;;;;;;;;;;230.90;2252.80;;;;;;5033848;28;19968;-63
2022/09/23 00:06:20;;;;;;;;;;;230.90;2252.80;;;;;;5038759;28;19971;-64
2022/09/23 00:08:48;;;;;;;;;;;230.90;2252.80;;;;;;5032437;28;19913;-63
2022/09/23 00:11:15;;;;;;;;;;;230.90;2252.80;;;;;;5034866;28;20404;-62
2022/09/23 00:13:43;;;;;;;;;;;230.90;2252.80;;;;;;5039819;28;19908;-62
2022/09/23 00:16:10;;;;;;;;;;;230.90;2252.80;;;;;;5039392;28;19925;-63
2022/09/23 00:18:35;;;;;;;;;;;230.90;2252.80;;;;;;5037943;28;19916;-62
2022/09/23 00:21:05;;;;;;;;;;;230.80;2252.80;;;;;;5040177;28;20283;-62
2022/09/23 00:23:31;;;;;;;;;;;230.70;2252.80;;;;;;5041746;28;19992;-63
2022/09/23 00:25:57;;;;;;;;;;;230.80;2252.80;;;;;;5034964;28;20257;-64
2022/09/23 00:28:23;;;;;;;;;;;230.80;2252.80;;;;;;5033426;28;20391;-63
2022/09/23 00:30:49;;;;;;;;;;;230.80;2252.80;;;;;;5041126;28;20484;-62
2022/09/23 00:33:14;;;;;;;;;;;230.80;2252.80;;;;;;5042910;28;19939;-63
2022/09/23 00:35:40;;;;;;;;;;;230.80;2252.80;;;;;;5042323;28;19909;-62
2022/09/23 00:38:05;;;;;;;;;;;230.80;2252.80;;;;;;5040281;28;20002;-62
2022/09/23 00:40:31;;;;;;;;;;;230.70;2252.80;;;;;;5041064;28;19913;-61
2022/09/23 00:42:57;;;;;;;;;;;230.70;2252.80;;;;;;5040802;28;19909;-63
2022/09/23 00:45:22;;;;;;;;;;;230.70;2252.80;;;;;;5041448;28;19921;-62
2022/09/23 00:47:56;;;;;;;;;;;230.70;2252.80;;;;;;5043783;28;19927;-62
2022/09/23 00:50:25;;;;;;;;;;;230.70;2252.80;;;;;;5038172;28;20317;-63
2022/09/23 00:52:51;;;;;;;;;;;230.70;2252.80;;;;;;5032761;28;19913;-63
2022/09/23 00:55:24;;;;;;;;;;;230.60;2252.80;;;;;;5032682;28;20352;-63
2022/09/23 00:57:53;;;;;;;;;;;230.60;2252.80;;;;;;5032622;28;19909;-62
2022/09/23 01:00:19;;;;;;;;;;;230.60;2252.80;;;;;;5030157;28;19913;-62
2022/09/23 01:02:45;;;;;;;;;;;230.60;2252.80;;;;;;5032418;28;19932;-62
2022/09/23 01:05:11;;;;;;;;;;;230.60;2252.80;;;;;;5032796;28;19909;-62
2022/09/23 01:07:37;;;;;;;;;;;205.70;2252.80;;;;;;5032188;28;19917;-63
2022/09/23 01:10:02;;;;;;;;;;;230.40;2252.80;;;;;;5032849;28;20386;-62
2022/09/23 01:12:36;;;;;;;;;;;205.70;2252.80;;;;;;5032872;28;19917;-62
2022/09/23 01:15:22;;;;;;;;;;;230.40;2252.80;;;;;;5032661;28;19920;-61
2022/09/23 01:17:51;;;;;;;;;;;230.40;2252.80;;;;;;5032307;28;19961;-63
2022/09/23 01:20:34;;;;;;;;;;;230.40;2252.80;;;;;;5032471;28;19957;-60
2022/09/23 01:23:12;;;;;;;;;;;205.70;2252.80;;;;;;5032681;28;20356;-63
2022/09/23 01:25:56;;;;;;;;;;;205.70;2252.80;;;;;;5032232;28;20355;-63
2022/09/23 01:28:32;;;;;;;;;;;205.70;2252.80;;;;;;5032425;28;19951;-63
2022/09/23 01:31:03;;;;;;;;;;;205.70;2252.80;;;;;;5032264;28;20351;-63
2022/09/23 01:33:34;;;;;;;;;;;205.70;2252.80;;;;;;5031974;28;19967;-62
2022/09/23 01:35:59;;;;;;;;;;;205.70;2252.80;;;;;;5032425;28;20431;-63
2022/09/23 01:38:27;;;;;;;;;;;205.60;2252.80;;;;;;5032205;28;19944;-62
2022/09/23 01:40:53;;;;;;;;;;;205.60;2252.80;;;;;;5032064;28;20394;-64
2022/09/23 01:43:42;;;;;;;;;;;205.60;2252.80;;;;;;5032313;28;19960;-63
2022/09/23 01:46:15;;;;;;;;;;;205.60;2252.80;;;;;;4951610;29;19926;-62
2022/09/23 01:48:40;;;;;;;;;;;205.50;2252.80;;;;;;4952152;29;19917;-63
2022/09/23 01:51:15;;;;;;;;;;;205.50;2252.80;;;;;;4951817;29;20001;-63
2022/09/23 01:53:44;;;;;;;;;;;205.50;2252.80;;;;;;4952146;29;19910;-62
2022/09/23 01:56:16;;;;;;;;;;;205.50;2252.80;;;;;;4951857;29;19942;-62
2022/09/23 01:58:49;;;;;;;;;;;205.50;2252.80;;;;;;4952008;29;20250;-63
2022/09/23 02:01:18;;;;;;;;;;;205.50;2252.80;;;;;;4951689;29;19915;-63
2022/09/23 02:04:02;;;;;;;;;;;205.50;2252.80;;;;;;4951550;29;19917;-63
2022/09/23 02:06:40;;;;;;;;;;;205.40;2252.80;;;;;;4951676;29;20416;-62
2022/09/23 02:09:17;;;;;;;;;;;205.40;2252.80;;;;;;4951545;29;19918;-63
2022/09/23 02:11:44;;;;;;;;;;;205.40;2252.80;;;;;;4951677;29;20384;-63
2022/09/23 02:14:23;;;;;;;;;;;205.30;2252.80;;;;;;4951486;29;19910;-63
2022/09/23 02:16:50;;;;;;;;;;;205.30;2252.80;;;;;;4951581;29;19922;-62
2022/09/23 02:19:36;;;;;;;;;;;205.30;2252.80;;;;;;4951415;28;19954;-63
2022/09/23 02:22:25;;;;;;;;;;;205.20;2252.80;;;;;;4954803;28;20099;-63
2022/09/23 02:24:50;;;;;;;;;;;205.20;2252.80;;;;;;4951407;29;20292;-65
2022/09/23 02:27:19;;;;;;;;;;;205.20;2252.80;;;;;;4950885;29;19925;-62
2022/09/23 02:29:48;;;;;;;;;;;205.20;2252.80;;;;;;4951181;29;19910;-63
2022/09/23 02:32:18;;;;;;;;;;;205.20;2252.80;;;;;;4951137;29;20389;-63
2022/09/23 02:34:45;;;;;;;;;;;205.20;2252.80;;;;;;4951063;29;20393;-63
2022/09/23 02:37:23;;;;;;;;;;;205.20;2252.80;;;;;;4951266;29;19910;-62
2022/09/23 02:39:53;;;;;;;;;;;205.20;2252.80;;;;;;4951093;29;19914;-63
2022/09/23 02:42:27;;;;;;;;;;;205.20;2252.80;;;;;;4950936;29;20459;-62
2022/09/23 02:44:53;;;;;;;;;;;205.20;2252.80;;;;;;4950835;28;20782;-62
2022/09/23 02:47:22;;;;;;;;;;;205.20;2252.80;;;;;;4951058;29;19926;-62
2022/09/23 02:49:48;;;;;;;;;;;205.20;2252.80;;;;;;4950851;29;19953;-62
2022/09/23 02:52:14;;;;;;;;;;;205.20;2252.80;;;;;;4950796;29;19946;-62
2022/09/23 02:54:39;;;;;;;;;;;205.20;2252.80;;;;;;4950859;29;19911;-63
2022/09/23 02:57:06;;;;;;;;;;;205.10;2252.80;;;;;;4950635;29;19910;-62
2022/09/23 02:59:33;;;;;;;;;;;205.10;2252.80;;;;;;4950829;29;20049;-62
2022/09/23 03:02:16;;;;;;;;;;;205.10;2252.80;;;;;;4995827;28;20385;-62
2022/09/23 03:04:59;;;;;;;;;;;205.00;2252.80;;;;;;5030998;28;19979;-62
2022/09/23 03:07:31;;;;;;;;;;;205.00;2252.80;;;;;;5030562;28;20043;-63
2022/09/23 03:10:09;;;;;;;;;;;204.90;2252.80;;;;;;5030893;28;20313;-62
2022/09/23 03:12:40;;;;;;;;;;;204.90;2252.80;;;;;;5030365;28;19909;-62
2022/09/23 03:15:20;;;;;;;;;;;204.90;2252.80;;;;;;5030423;28;19913;-62
2022/09/23 03:18:01;;;;;;;;;;;204.80;2252.80;;;;;;5030510;28;19928;-63
2022/09/23 03:20:29;;;;;;;;;;;204.80;2252.80;;;;;;5030612;28;20371;-63
2022/09/23 03:22:59;;;;;;;;;;;180.10;2252.80;;;;;;5030615;28;19910;-62
2022/09/23 03:25:26;;;;;;;;;;;180.10;2252.80;;;;;;5030383;28;19909;-62
2022/09/23 03:27:55;;;;;;;;;;;180.10;2252.80;;;;;;5030532;28;20396;-62
2022/09/23 03:30:21;;;;;;;;;;;204.80;2252.80;;;;;;5030520;28;20339;-62
2022/09/23 03:32:46;;;;;;;;;;;180.10;2252.80;;;;;;5030331;28;19913;-62
2022/09/23 03:35:12;;;;;;;;;;;180.10;2252.80;;;;;;5030607;28;19915;-62
2022/09/23 03:37:40;;;;;;;;;;;180.10;2252.80;;;;;;5030342;28;20014;-62
2022/09/23 03:40:15;;;;;;;;;;;180.00;2252.80;;;;;;5030146;28;20359;-62
2022/09/23 03:42:41;;;;;;;;;;;180.00;2252.80;;;;;;5030508;28;20298;-62
2022/09/23 03:45:09;;;;;;;;;;;180.00;2252.80;;;;;;5029951;28;19921;-62
2022/09/23 03:47:35;;;;;;;;;;;180.00;2252.80;;;;;;5030118;28;20020;-62
2022/09/23 03:50:01;;;;;;;;;;;180.00;2252.80;;;;;;5030449;28;20011;-62
2022/09/23 03:52:27;;;;;;;;;;;180.00;2252.80;;;;;;5030248;28;19988;-62
2022/09/23 03:54:52;;;;;;;;;;;180.00;2252.80;;;;;;5030993;28;19909;-62
2022/09/23 03:57:20;;;;;;;;;;;180.00;2252.80;;;;;;5034105;28;19967;-62
2022/09/23 03:59:47;;;;;;;;;;;180.00;2252.80;;;;;;5034006;28;20283;-62
2022/09/23 04:02:14;;;;;;;;;;;180.00;2252.80;;;;;;5034313;28;19995;-63
2022/09/23 04:04:40;;;;;;;;;;;180.00;2252.80;;;;;;5034332;28;19909;-61
2022/09/23 04:07:05;;;;;;;;;;;180.00;2252.80;;;;;;5033882;28;19948;-62
2022/09/23 04:09:32;;;;;;;;;;;180.00;2252.80;;;;;;5034116;28;19967;-62
2022/09/23 04:11:58;;;;;;;;;;;180.00;2252.80;;;;;;5033845;28;19909;-62
2022/09/23 04:14:23;;;;;;;;;;;180.00;2252.80;;;;;;5033816;28;19920;-63
2022/09/23 04:16:49;;;;;;;;;;;179.90;2252.80;;;;;;5034031;28;20031;-62
2022/09/23 04:19:15;;;;;;;;;;;179.90;2252.80;;;;;;5033796;28;19917;-62
2022/09/23 04:21:41;;;;;;;;;;;179.90;2252.80;;;;;;5033990;28;19939;-62
2022/09/23 04:24:07;;;;;;;;;;;179.90;2252.80;;;;;;5033566;28;19924;-61
2022/09/23 04:26:33;;;;;;;;;;;179.90;2252.80;;;;;;5033791;28;19917;-62
2022/09/23 04:28:59;;;;;;;;;;;179.90;2252.80;;;;;;5034071;28;20253;-61
2022/09/23 04:31:24;;;;;;;;;;;179.90;2252.80;;;;;;5033455;28;19916;-63
2022/09/23 04:33:53;;;;;;;;;;;179.90;2252.80;;;;;;5033606;28;19994;-62
2022/09/23 04:36:18;;;;;;;;;;;179.90;2252.80;;;;;;5033286;28;20116;-62
2022/09/23 04:38:48;;;;;;;;;;;179.90;2252.80;;;;;;5033222;28;19991;-63
2022/09/23 04:41:14;;;;;;;;;;;180.00;2252.80;;;;;;5033671;28;19909;-62
2022/09/23 04:43:40;;;;;;;;;;;179.90;2252.80;;;;;;5033333;28;19920;-62
2022/09/23 04:46:06;;;;;;;;;;;180.00;2252.80;;;;;;5032531;28;19929;-62
2022/09/23 04:48:32;;;;;;;;;;;180.10;2252.80;;;;;;5030370;28;20253;-61
2022/09/23 04:51:04;;;;;;;;;;;204.80;2252.80;;;;;;5032801;28;19936;-62
2022/09/23 04:53:30;;;;;;;;;;;204.90;2252.80;;;;;;5032800;28;19919;-61
2022/09/23 04:56:05;;;;;;;;;;;205.00;2252.80;;;;;;5032745;28;20004;-62
2022/09/23 04:58:32;;;;;;;;;;;205.00;2252.80;;;;;;5029950;28;19909;-62
2022/09/23 05:00:58;;;;;;;;;;;205.00;2252.80;;;;;;5032552;28;19972;-62
2022/09/23 05:03:23;;;;;;;;;;;205.10;2252.80;;;;;;5032924;28;20016;-61
2022/09/23 05:05:49;;;;;;;;;;;205.20;2252.80;;;;;;5032609;28;19921;-61
2022/09/23 05:08:15;;;;;;;;;;;205.20;2252.80;;;;;;5031979;28;19913;-61
2022/09/23 05:10:41;;;;;;;;;;;205.30;2252.80;;;;;;5032961;28;19940;-62
2022/09/23 05:13:07;;;;;;;;;;;205.40;2252.80;;;;;;5032690;28;19992;-61
2022/09/23 05:15:33;;;;;;;;;;;205.50;2252.80;;;;;;5032457;28;20371;-63
2022/09/23 05:17:59;;;;;;;;;;;205.50;2252.80;;;;;;5032854;28;20290;-61
2022/09/23 05:20:24;;;;;;;;;;;205.60;2252.80;;;;;;5032657;28;19909;-60
2022/09/23 05:22:54;;;;;;;;;;;205.60;2252.80;;;;;;5032570;28;19999;-62
2022/09/23 05:25:22;;;;;;;;;;;205.50;2252.80;;;;;;5032754;28;19909;-61
2022/09/23 05:27:48;;;;;;;;;;;205.50;2252.80;;;;;;5032329;28;19925;-63
2022/09/23 05:30:13;;;;;;;;;;;205.60;2252.80;;;;;;5032699;28;19910;-63
2022/09/23 05:32:39;;;;;;;;;;;205.70;2252.80;;;;;;5032693;28;19959;-62
2022/09/23 05:35:05;;;;;;;;;;;230.40;2252.80;;;;;;5032428;28;19916;-63
2022/09/23 05:37:31;;;;;;;;;;;230.40;2252.80;;;;;;5032550;28;19916;-62
2022/09/23 05:39:57;;;;;;;;;;;230.40;2252.80;;;;;;5032274;28;19909;-62
2022/09/23 05:42:22;;;;;;;;;;;230.50;2252.80;;;;;;5032270;28;19963;-62
2022/09/23 05:44:48;;;;;;;;;;;230.50;2252.80;;;;;;5031834;28;19917;-63
2022/09/23 05:47:14;;;;;;;;;;;230.60;2252.80;;;;;;5032379;28;19949;-63
2022/09/23 05:49:39;;;;;;;;;;;230.60;2252.80;;;;;;5032501;28;19936;-62
2022/09/23 05:52:05;;;;;;;;;;;230.60;2252.80;;;;;;5032061;28;19917;-63
2022/09/23 05:54:31;;;;;;;;;;;231.30;2252.80;;;;;;5032236;28;19955;-63
2022/09/23 05:56:56;;;;;;;;;;;333.10;2329.60;;;;;;5031939;28;20355;-62
2022/09/23 05:59:22;;;;;;;;;;;384.90;2329.60;;;;;;5031940;28;19909;-61
2022/09/23 06:01:47;;;;;;;;;;;435.70;2355.20;;;;;;5032096;28;20039;-63
2022/09/23 06:04:13;;;;;;;;;;;486.60;2099.20;;;;;;5032181;28;20295;-63
2022/09/23 06:06:40;;;;;;;;;;;512.30;1945.60;;;;;;5031680;28;20294;-62
2022/09/23 06:09:06;;;;;;;;;;;538.30;1843.20;;;;;;5031696;28;19915;-62
2022/09/23 06:11:33;;;;;;;;;;;563.80;1766.40;;;;;;5032028;28;19917;-62
2022/09/23 06:13:59;;;;;;;;;;;589.10;1689.60;;;;;;5031344;28;19956;-63
2022/09/23 06:16:26;;;;;;;;;;;589.60;1638.40;;;;;;5031573;28;19919;-63
2022/09/23 06:18:51;;;;;;;;;;;615.00;1587.20;;;;;;5031306;28;20007;-63
2022/09/23 06:21:17;;;;;;;;;;;640.40;1536.00;;;;;;5031332;28;19983;-65
2022/09/23 06:23:43;;;;;;;;;;;640.00;1510.40;;;;;;5031609;28;19909;-62
2022/09/23 06:26:10;;;;;;;;;;;665.90;1510.40;;;;;;5031649;28;19928;-64
2022/09/23 06:28:36;;;;;;;;;;;691.20;1459.20;;;;;;5031124;28;20000;-63
2022/09/23 06:31:03;;;;;;;;;;;716.80;1433.60;;;;;;5031448;28;19948;-59
2022/09/23 06:33:29;;;;;;;;;;;717.20;1382.40;;;;;;5031163;28;19919;-59
2022/09/23 06:35:55;;;;;;;;;;;691.90;1356.80;;;;;;5030902;28;19920;-58
2022/09/23 06:38:21;;;;;;;;;;;716.90;1408.00;;;;;;5031430;28;19909;-59
2022/09/23 06:40:50;;;;;;;;;;;716.80;1382.40;;;;;;5031219;28;20249;-59
2022/09/23 06:43:16;;;;;;;;;;;717.40;1356.80;;;;;;5031021;28;19916;-59
2022/09/23 06:45:41;;;;;;;;;;;717.40;1356.80;;;;;;5030959;28;19921;-59
2022/09/23 06:48:08;;;;;;;;;;;742.40;1356.80;;;;;;5030829;28;19917;-60
2022/09/23 06:50:33;;;;;;;;;;;743.00;1305.60;;;;;;5031083;28;20359;-60
2022/09/23 06:52:59;;;;;;;;;;;742.90;1305.60;;;;;;5031189;28;19913;-60
2022/09/23 06:55:26;;;;;;;;;;;743.30;1331.20;;;;;;5030875;28;19910;-61
2022/09/23 06:57:51;;;;;;;;;;;768.90;1280.00;;;;;;5030962;28;19909;-60
2022/09/23 07:00:17;;;;;;;;;;;768.30;1254.40;;;;;;5030741;28;19936;-61
2022/09/23 07:02:43;;;;;;;;;;;793.70;1280.00;;;;;;5031045;28;19909;-59
2022/09/23 07:05:08;;;;;;;;;;;794.30;1254.40;;;;;;5030915;28;19948;-59
2022/09/23 07:07:35;;;;;;;;;;;794.30;1254.40;;;;;;5030718;28;20322;-58
2022/09/23 07:10:01;;;;;;;;;;;819.20;1228.80;;;;;;5030833;28;19909;-58
2022/09/23 07:12:26;;;;;;;;;;;794.40;1203.20;;;;;;5030486;28;19909;-57
2022/09/23 07:14:52;;;;;;;;;;;768.70;1228.80;;;;;;5030622;28;19967;-57
2022/09/23 07:17:17;;;;;;;;;;;793.60;1254.40;;;;;;5030247;28;19961;-57
2022/09/23 07:19:43;;;;;;;;;;;743.20;1280.00;;;;;;5030432;28;19909;-58
2022/09/23 07:22:09;;;;;;;;;;;717.40;1305.60;;;;;;5030428;28;19917;-57
2022/09/23 07:24:34;;;;;;;;;;;768.30;1254.40;;;;;;5030156;28;20363;-59
2022/09/23 07:27:01;;;;;;;;;;;742.80;1305.60;;;;;;5029754;28;19936;-58
2022/09/23 07:29:26;;;;;;;;;;;742.90;1280.00;;;;;;5022678;28;19929;-58
2022/09/23 07:31:52;;;;;;;;;;;717.60;1305.60;;;;;;5023917;28;19913;-58
2022/09/23 07:34:18;;;;;;;;;;;742.40;1305.60;;;;;;5029661;28;19913;-59
2022/09/23 07:36:43;;;;;;;;;;;742.40;1305.60;;;;;;5029892;28;20012;-58
2022/09/23 07:39:09;;;;;;;;;;;;;;;;;;5029783;28;19996;-57
2022/09/23 07:41:36;;;;;;;;;;;;;;;;;;5029796;28;19920;-58
2022/09/23 07:44:07;;;;;;;;;;;793.60;1280.00;;;;;;5029531;28;19920;-58
2022/09/23 07:46:34;;;;;;;;;;;845.70;1152.00;;;;;;5028888;28;19932;-58
2022/09/23 07:49:02;;;;;;;;;;;870.60;1126.40;;;;;;5026475;28;19910;-58
2022/09/23 07:51:31;;;;;;;;;;;845.50;1177.60;;;;;;5028776;28;20047;-58
2022/09/23 07:53:57;;;;;;;;;;;871.10;1100.80;;;;;;5028688;28;19956;-57
2022/09/23 07:56:27;;;;;;;;;;;870.70;1126.40;;;;;;5028875;28;19913;-58
2022/09/23 07:58:58;;;;;;;;;;;845.70;1177.60;;;;;;5028828;28;19959;-57
2022/09/23 08:01:25;;;;;;;;;;;819.90;1152.00;;;;;;5026484;28;19917;-58
2022/09/23 08:03:50;;;;;;;;;;;870.40;1126.40;;;;;;5029151;28;19960;-58
2022/09/23 08:06:16;;;;;;;;;;;870.70;1152.00;;;;;;5029520;28;19917;-57
2022/09/23 08:08:45;;;;;;;;;;;871.00;1126.40;;;;;;5029217;28;19920;-58
2022/09/23 08:11:12;;;;;;;;;;;;;;;;;;5030384;28;19955;-57
2022/09/23 08:13:37;;;;;;;;;;;871.00;1100.80;;;;;;5029717;28;19979;-58
2022/09/23 08:16:03;;;;;;;;;;;;;;;;;;5030019;28;20371;-59
2022/09/23 08:18:29;;;;;;;;;;;896.80;1075.20;;;;;;5029833;28;19909;-58
2022/09/23 08:20:54;;;;;;;;;;;947.30;1024.00;;;;;;5029871;28;19909;-60
2022/09/23 08:23:20;;;;;;;;;;;921.80;1049.60;;;;;;5030133;28;19916;-59
2022/09/23 08:25:46;;;;;;;;;;;;;;;;;;5029663;28;20355;-59
2022/09/23 08:28:17;;;;;;;;;;;922.30;1049.60;;;;;;5029922;28;19909;-59
2022/09/23 08:30:43;;;;;;;;;;;947.20;998.40;;;;;;5029984;28;19971;-59
2022/09/23 08:33:10;;;;;;;;;;;947.20;998.40;;;;;;5030160;28;19916;-60
2022/09/23 08:35:35;;;;;;;;;;;922.10;1049.60;;;;;;5029856;28;19909;-59
2022/09/23 08:38:01;;;;;;;;;;;922.10;1024.00;;;;;;5029845;28;19916;-59
2022/09/23 08:40:26;;;;;;;;;;;896.20;998.40;;;;;;5029697;28;19916;-59
2022/09/23 08:42:52;;;;;;;;;;;921.70;1049.60;;;;;;5033345;28;19955;-60
2022/09/23 08:45:24;;;;;;;;;;;896.60;1024.00;;;;;;5033001;28;20439;-58
2022/09/23 08:47:54;;;;;;;;;;;896.70;1024.00;;;;;;5033468;28;19931;-58
2022/09/23 08:50:20;;;;;;;;;;;896.90;972.80;;;;;;5033410;28;20371;-57
2022/09/23 08:52:54;;;;;;;;;;;870.90;1075.20;;;;;;5033083;28;19913;-57
2022/09/23 08:55:32;;;;;;;;;;;819.60;1100.80;;;;;;5033206;28;20347;-57
2022/09/23 08:57:58;;;;;;;;;;;;;;;;;;5032948;28;20043;-57
2022/09/23 09:00:27;;;;;;;;;;;794.00;1152.00;;;;;;5033393;28;19955;-57
2022/09/23 09:02:54;;;;;;;;;;;743.00;1254.40;;;;;;5033264;28;19963;-57
2022/09/23 09:05:24;;;;;;;;;;;717.60;1254.40;;;;;;5032912;28;20336;-57
2022/09/23 09:07:50;;;;;;;;;;;666.00;1305.60;;;;;;5032896;28;19921;-56
2022/09/23 09:10:17;;;;;;;;;;;615.10;1382.40;;;;;;5032825;28;19909;-56
2022/09/23 09:12:46;;;;;;;;;;;640.10;1356.80;;;;;;5032918;28;19909;-57
2022/09/23 09:15:12;;;;;;;;;;;614.80;1433.60;;;;;;5032804;28;19919;-58
2022/09/23 09:17:50;;;;;;;;;;;614.80;1433.60;;;;;;5032550;28;19913;-58
2022/09/23 09:20:17;;;;;;;;;;;615.30;1382.40;;;;;;5032771;28;19909;-58
2022/09/23 09:22:43;;;;;;;;;;;615.10;1408.00;;;;;;5032720;28;19909;-59
2022/09/23 09:25:22;;;;;;;;;;;640.00;1382.40;;;;;;5032377;28;19920;-59
2022/09/23 09:27:48;;;;;;;;;;;614.60;1382.40;;;;;;5032262;28;20430;-59
2022/09/23 09:30:15;;;;;;;;;;;614.80;1382.40;;;;;;5032546;28;19909;-60
2022/09/23 09:32:45;;;;;;;;;;;614.90;1433.60;;;;;;5032813;28;20287;-59
2022/09/23 09:35:28;;;;;;;;;;;614.80;1433.60;;;;;;5032959;28;19909;-59
2022/09/23 09:37:54;;;;;;;;;;;614.70;1459.20;;;;;;5032308;28;20007;-59
2022/09/23 09:40:20;;;;;;;;;;;614.50;1459.20;;;;;;5032383;28;19963;-58
2022/09/23 09:42:47;;;;;;;;;;;614.90;1433.60;;;;;;5032140;28;19909;-61
2022/09/23 09:45:25;;;;;;;;;;;614.90;1382.40;;;;;;5032219;28;19921;-61
2022/09/23 09:47:50;;;;;;;;;;;589.50;1408.00;;;;;;5032177;28;19931;-61
2022/09/23 09:50:20;;;;;;;;;;;589.30;1484.80;;;;;;5032010;28;19996;-61
2022/09/23 09:52:47;;;;;;;;;;;589.30;1484.80;;;;;;5031271;28;20314;-61
2022/09/23 09:55:12;;;;;;;;;;;588.90;1484.80;;;;;;5032447;28;20397;-59
2022/09/23 09:58:04;;;;;;;;;;;588.90;1510.40;;;;;;5031778;28;20364;-58
2022/09/23 10:00:30;;;;;;;;;;;588.90;1510.40;;;;;;5032108;28;19910;-58
2022/09/23 10:03:13;;;;;;;;;;;589.00;1484.80;;;;;;5031888;28;19918;-57
2022/09/23 10:05:45;;;;;;;;;;;564.10;1433.60;;;;;;5031892;28;19913;-57
2022/09/23 10:08:25;;;;;;;;;;;588.80;1510.40;;;;;;5031973;28;19909;-57
2022/09/23 10:10:57;;;;;;;;;;;589.00;1484.80;;;;;;5031739;28;19913;-57
2022/09/23 10:13:26;;;;;;;;;;;589.20;1484.80;;;;;;5031621;28;20011;-57
2022/09/23 10:15:53;;;;;;;;;;;589.10;1459.20;;;;;;5031465;28;19917;-58
2022/09/23 10:18:26;;;;;;;;;;;564.00;1459.20;;;;;;5031634;28;19924;-59
2022/09/23 10:20:58;;;;;;;;;;;588.80;1536.00;;;;;;5031526;28;19932;-57
2022/09/23 10:23:26;;;;;;;;;;;564.00;1510.40;;;;;;5031517;28;19913;-58
2022/09/23 10:25:59;;;;;;;;;;;588.80;1484.80;;;;;;5031338;28;19935;-60
2022/09/23 10:28:37;;;;;;;;;;;589.00;1484.80;;;;;;5013148;28;19909;-60
2022/09/23 10:31:07;;;;;;;;;;;563.70;1484.80;;;;;;5031299;28;19975;-60
2022/09/23 10:33:33;;;;;;;;;;;563.50;1510.40;;;;;;5031476;28;20283;-59
2022/09/23 10:35:58;;;;;;;;;;;563.30;1561.60;;;;;;5031066;28;19909;-58
2022/09/23 10:38:24;;;;;;;;;;;538.20;1561.60;;;;;;5031276;28;19909;-60
2022/09/23 10:46:38;;;;;;;;;;;537.60;1536.00;;;;;;5030908;28;19932;-59
2022/09/23 10:49:11;;;;;;;;;;;537.80;1561.60;;;;;;5031087;28;19955;-58
2022/09/23 10:51:37;;;;;;;;;;;538.30;1536.00;;;;;;5030903;28;20363;-60
2022/09/23 10:54:03;;;;;;;;;;;563.30;1536.00;;;;;;5030927;28;19972;-59
2022/09/23 10:56:28;;;;;;;;;;;538.10;1484.80;;;;;;5030769;28;19913;-59
2022/09/23 10:59:13;;;;;;;;;;;563.20;1561.60;;;;;;5031006;28;19913;-59
2022/09/23 11:01:38;;;;;;;;;;;538.40;1510.40;;;;;;5030630;28;19912;-58
2022/09/23 11:04:07;;;;;;;;;;;538.30;1459.20;;;;;;5030905;28;19966;-59
2022/09/23 11:06:52;;;;;;;;;;;537.70;1536.00;;;;;;5030893;28;19920;-59
2022/09/23 11:09:18;;;;;;;;;;;512.00;1536.00;;;;;;5030613;28;19916;-60
2022/09/23 11:12:01;;;;;;;;;;;512.60;1536.00;;;;;;5030876;28;19909;-58
2022/09/23 11:14:41;;;;;;;;;;;512.80;1510.40;;;;;;5030219;28;19913;-58
2022/09/23 11:17:07;;;;;;;;;;;537.60;1459.20;;;;;;5030711;28;19921;-60
2022/09/23 11:19:51;;;;;;;;;;;537.70;1459.20;;;;;;5030838;28;19909;-60
2022/09/23 11:22:34;;;;;;;;;;;537.70;1459.20;;;;;;5030685;28;19914;-62
2022/09/23 11:25:20;;;;;;;;;;;512.90;1484.80;;;;;;5030674;28;20322;-60
2022/09/23 11:28:04;;;;;;;;;;;537.70;1510.40;;;;;;5028919;28;19917;-60
2022/09/23 11:30:53;;;;;;;;;;;512.90;1433.60;;;;;;5028997;28;20017;-58
2022/09/23 11:33:41;;;;;;;;;;;537.80;1459.20;;;;;;5017981;28;19992;-57
2022/09/23 11:36:10;;;;;;;;;;;538.20;1433.60;;;;;;4948144;29;20350;-58
2022/09/23 11:38:43;;;;;;;;;;;537.90;1459.20;;;;;;4948266;29;20325;-56
2022/09/23 11:41:18;;;;;;;;;;;538.30;1484.80;;;;;;4947772;29;19956;-57
2022/09/23 11:43:50;;;;;;;;;;;563.20;1433.60;;;;;;4948179;29;20341;-57
2022/09/23 11:46:22;;;;;;;;;;;563.20;1408.00;;;;;;4948152;29;20054;-57
2022/09/23 11:48:55;;;;;;;;;;;563.60;1382.40;;;;;;4948219;29;20326;-56
2022/09/23 11:51:23;;;;;;;;;;;538.00;1382.40;;;;;;4948387;29;20320;-57
2022/09/23 11:53:52;;;;;;;;;;;537.60;1433.60;;;;;;4947663;29;19911;-56
2022/09/23 11:56:38;;;;;;;;;;;538.00;1408.00;;;;;;4948186;29;19945;-57
2022/09/23 11:59:03;;;;;;;;;;;537.70;1408.00;;;;;;4948220;29;19910;-57
2022/09/23 12:01:31;;;;;;;;;;;512.50;1433.60;;;;;;4948275;29;19925;-56
2022/09/23 12:04:02;;;;;;;;;;;512.70;1433.60;;;;;;4948043;29;19910;-57
2022/09/23 12:06:45;;;;;;;;;;;537.60;1536.00;;;;;;4947486;29;20440;-57
2022/09/23 12:09:23;;;;;;;;;;;537.70;1561.60;;;;;;4948029;29;19914;-57
2022/09/23 12:11:52;;;;;;;;;;;512.70;1510.40;;;;;;4948220;29;19950;-59
2022/09/23 12:14:26;;;;;;;;;;;512.90;1459.20;;;;;;5026607;28;19913;-57
2022/09/23 12:16:54;;;;;;;;;;;512.90;1484.80;;;;;;5030770;28;19936;-59
2022/09/23 12:19:26;;;;;;;;;;;512.20;1484.80;;;;;;5032477;28;19960;-59
2022/09/23 12:21:52;;;;;;;;;;;512.20;1510.40;;;;;;5032080;28;19909;-59
2022/09/23 12:24:24;;;;;;;;;;;512.70;1484.80;;;;;;5032086;28;20322;-60
2022/09/23 12:26:52;;;;;;;;;;;537.60;1536.00;;;;;;5032305;28;20310;-59
2022/09/23 12:29:17;;;;;;;;;;;538.00;1561.60;;;;;;5031913;28;19909;-59
2022/09/23 12:31:45;;;;;;;;;;;537.70;1459.20;;;;;;5032166;28;19913;-59
2022/09/23 12:34:22;;;;;;;;;;;537.90;1510.40;;;;;;5031579;28;19967;-58
2022/09/23 12:36:48;;;;;;;;;;;537.80;1459.20;;;;;;5032048;28;19909;-58
2022/09/23 12:39:14;;;;;;;;;;;512.80;1484.80;;;;;;5032043;28;19979;-59
2022/09/23 12:41:41;;;;;;;;;;;512.80;1459.20;;;;;;5032042;28;19913;-58
2022/09/23 12:44:07;;;;;;;;;;;512.30;1484.80;;;;;;5031549;28;20004;-59
2022/09/23 12:46:32;;;;;;;;;;;512.00;1484.80;;;;;;5031195;28;19926;-59
2022/09/23 12:48:59;;;;;;;;;;;512.10;1510.40;;;;;;5031572;28;19913;-58
2022/09/23 12:51:28;;;;;;;;;;;512.70;1561.60;;;;;;5032484;28;20209;-59
2022/09/23 12:54:03;;;;;;;;;;;512.30;1459.20;;;;;;5033743;28;20328;-56
2022/09/23 12:56:37;;;;;;;;;;;512.40;1484.80;;;;;;5033197;28;19909;-56
2022/09/23 12:59:13;;;;;;;;;;;512.50;1484.80;;;;;;5033271;28;19975;-58
2022/09/23 13:01:39;;;;;;;;;;;487.10;1484.80;;;;;;5033016;28;19952;-58
2022/09/23 13:06:55;;;;;;;;;;;512.00;1484.80;;;;;;5033017;28;20386;-58
2022/09/23 13:09:23;;;;;;;;;;;512.00;1510.40;;;;;;5032994;28;20026;-58
2022/09/23 13:11:51;;;;;;;;;;;486.80;1510.40;;;;;;5032672;28;19913;-58
2022/09/23 13:14:20;;;;;;;;;;;486.70;1510.40;;;;;;5032593;28;19919;-59
2022/09/23 13:16:46;;;;;;;;;;;486.50;1536.00;;;;;;5032873;28;19913;-58
2022/09/23 13:19:27;;;;;;;;;;;486.50;1536.00;;;;;;5033140;28;19909;-58
2022/09/23 13:21:52;;;;;;;;;;;461.60;1536.00;;;;;;5032737;28;19909;-58
2022/09/23 13:24:27;;;;;;;;;;;486.40;1536.00;;;;;;5032542;28;20406;-56
2022/09/23 13:27:04;;;;;;;;;;;486.50;1536.00;;;;;;5029798;28;19975;-56
2022/09/23 13:29:37;;;;;;;;;;;486.80;1536.00;;;;;;5030319;28;20000;-57
2022/09/23 13:32:04;;;;;;;;;;;487.10;1536.00;;;;;;5031037;28;20406;-59
2022/09/23 13:34:31;;;;;;;;;;;487.00;1587.20;;;;;;5031001;28;19977;-59
2022/09/23 13:36:57;;;;;;;;;;;486.70;1612.80;;;;;;5030605;28;19917;-57
2022/09/23 13:39:24;;;;;;;;;;;486.40;1638.40;;;;;;5030253;28;19936;-57
2022/09/23 13:41:52;;;;;;;;;;;461.70;1664.00;;;;;;5030996;28;19920;-56
2022/09/23 13:44:19;;;;;;;;;;;461.70;1664.00;;;;;;5030377;28;19975;-56
2022/09/23 13:46:50;;;;;;;;;;;486.40;1638.40;;;;;;5030296;28;19925;-57
2022/09/23 13:49:46;;;;;;;;;;;487.00;1638.40;;;;;;5030572;28;20620;-56
2022/09/23 13:52:25;;;;;;;;;;;486.80;1587.20;;;;;;4949551;29;19918;-56
2022/09/23 13:54:51;;;;;;;;;;;486.50;1612.80;;;;;;4950184;29;19915;-57
2022/09/23 13:57:28;;;;;;;;;;;486.80;1587.20;;;;;;4949714;29;19918;-56
2022/09/23 13:59:53;;;;;;;;;;;486.50;1612.80;;;;;;4949996;29;19911;-56
2022/09/23 14:02:19;;;;;;;;;;;486.80;1612.80;;;;;;4949881;29;20372;-56
2022/09/23 14:04:45;;;;;;;;;;;487.00;1638.40;;;;;;4949328;28;20021;-56